sensor_id;sensor_type;location;lat;lon;timestamp;P1;durP1;ratioP1;P2;durP2;ratioP2
55224;SDS011;41091;49.400;8.684;2023-02-15T00:01:13;30.90;;;15.23;;
55224;SDS011;41091;49.400;8.684;2023-02-15T00:03:41;30.38;;;15.25;;
55224;SDS011;41091;49.400;8.684;2023-02-15T00:06:06;25.15;;;14.50;;
55224;SDS011;41091;49.400;8.684;2023-02-15T00:08:34;30.42;;;15.15;;
55224;SDS011;41091;49.400;8.684;2023-02-15T00:11:09;27.95;;;14.20;;
55224;SDS011;41091;49.400;8.684;2023-02-15T00:13:36;26.50;;;13.13;;
55224;SDS011;41091;49.400;8.684;2023-02-15T00:16:04;30.42;;;14.05;;
55224;SDS011;41091;49.400;8.684;2023-02-15T00:18:32;26.70;;;13.55;;
55224;SDS011;41091;49.400;8.684;2023-02-15T00:21:02;31.98;;;14.70;;
55224;SDS011;41091;49.400;8.684;2023-02-15T00:23:31;30.75;;;13.00;;
55224;SDS011;41091;49.400;8.684;2023-02-15T00:26:02;21.70;;;13.43;;
55224;SDS011;41091;49.400;8.684;2023-02-15T00:28:37;28.52;;;13.95;;
55224;SDS011;41091;49.400;8.684;2023-02-15T00:33:32;27.38;;;14.43;;
55224;SDS011;41091;49.400;8.684;2023-02-15T00:35:58;27.00;;;13.60;;
55224;SDS011;41091;49.400;8.684;2023-02-15T00:38:24;22.70;;;14.27;;
55224;SDS011;41091;49.400;8.684;2023-02-15T00:40:53;23.08;;;12.93;;
55224;SDS011;41091;49.400;8.684;2023-02-15T00:43:22;23.08;;;12.23;;
55224;SDS011;41091;49.400;8.684;2023-02-15T00:45:50;28.08;;;13.68;;
55224;SDS011;41091;49.400;8.684;2023-02-15T00:48:15;23.08;;;12.30;;
55224;SDS011;41091;49.400;8.684;2023-02-15T00:50:41;23.25;;;13.10;;
55224;SDS011;41091;49.400;8.684;2023-02-15T00:53:06;21.35;;;13.13;;
55224;SDS011;41091;49.400;8.684;2023-02-15T00:55:31;28.38;;;13.15;;
55224;SDS011;41091;49.400;8.684;2023-02-15T00:58:01;29.45;;;13.77;;
55224;SDS011;41091;49.400;8.684;2023-02-15T01:00:26;28.70;;;13.48;;
55224;SDS011;41091;49.400;8.684;2023-02-15T01:02:54;25.83;;;13.43;;
55224;SDS011;41091;49.400;8.684;2023-02-15T01:05:22;27.63;;;12.80;;
55224;SDS011;41091;49.400;8.684;2023-02-15T01:07:47;23.58;;;12.60;;
55224;SDS011;41091;49.400;8.684;2023-02-15T01:10:15;25.20;;;12.70;;
55224;SDS011;41091;49.400;8.684;2023-02-15T01:12:41;26.88;;;13.90;;
55224;SDS011;41091;49.400;8.684;2023-02-15T01:15:09;24.05;;;12.82;;
55224;SDS011;41091;49.400;8.684;2023-02-15T01:17:36;25.63;;;14.15;;
55224;SDS011;41091;49.400;8.684;2023-02-15T01:20:02;26.00;;;12.63;;
55224;SDS011;41091;49.400;8.684;2023-02-15T01:22:29;22.13;;;13.02;;
55224;SDS011;41091;49.400;8.684;2023-02-15T01:24:55;32.35;;;14.30;;
55224;SDS011;41091;49.400;8.684;2023-02-15T01:27:20;24.75;;;13.90;;
55224;SDS011;41091;49.400;8.684;2023-02-15T01:29:45;23.80;;;14.00;;
55224;SDS011;41091;49.400;8.684;2023-02-15T01:32:12;22.08;;;13.05;;
55224;SDS011;41091;49.400;8.684;2023-02-15T01:34:39;24.60;;;13.00;;
55224;SDS011;41091;49.400;8.684;2023-02-15T01:37:05;28.33;;;14.27;;
55224;SDS011;41091;49.400;8.684;2023-02-15T01:39:30;27.23;;;13.57;;
55224;SDS011;41091;49.400;8.684;2023-02-15T01:41:55;28.65;;;13.57;;
55224;SDS011;41091;49.400;8.684;2023-02-15T01:47:07;25.85;;;12.82;;
55224;SDS011;41091;49.400;8.684;2023-02-15T01:49:33;30.25;;;14.43;;
55224;SDS011;41091;49.400;8.684;2023-02-15T01:51:59;28.38;;;14.73;;
55224;SDS011;41091;49.400;8.684;2023-02-15T01:54:29;31.20;;;14.13;;
55224;SDS011;41091;49.400;8.684;2023-02-15T01:56:57;25.98;;;13.82;;
55224;SDS011;41091;49.400;8.684;2023-02-15T01:59:25;33.88;;;14.48;;
55224;SDS011;41091;49.400;8.684;2023-02-15T02:01:51;29.05;;;14.93;;
55224;SDS011;41091;49.400;8.684;2023-02-15T02:06:56;30.73;;;14.90;;
55224;SDS011;41091;49.400;8.684;2023-02-15T02:09:22;29.95;;;15.30;;
55224;SDS011;41091;49.400;8.684;2023-02-15T02:11:48;35.05;;;16.65;;
55224;SDS011;41091;49.400;8.684;2023-02-15T02:14:13;39.33;;;13.93;;
55224;SDS011;41091;49.400;8.684;2023-02-15T02:16:52;28.83;;;13.80;;
55224;SDS011;41091;49.400;8.684;2023-02-15T02:27:42;32.05;;;14.25;;
55224;SDS011;41091;49.400;8.684;2023-02-15T02:30:18;34.80;;;15.35;;
55224;SDS011;41091;49.400;8.684;2023-02-15T02:38:08;34.53;;;15.52;;
55224;SDS011;41091;49.400;8.684;2023-02-15T02:40:59;33.17;;;15.20;;
55224;SDS011;41091;49.400;8.684;2023-02-15T02:46:07;35.05;;;15.15;;
55224;SDS011;41091;49.400;8.684;2023-02-15T02:48:35;28.10;;;14.70;;
55224;SDS011;41091;49.400;8.684;2023-02-15T02:51:01;26.48;;;13.35;;
55224;SDS011;41091;49.400;8.684;2023-02-15T02:53:26;28.95;;;13.82;;
55224;SDS011;41091;49.400;8.684;2023-02-15T02:56:11;29.35;;;14.73;;
55224;SDS011;41091;49.400;8.684;2023-02-15T02:58:55;34.28;;;14.80;;
55224;SDS011;41091;49.400;8.684;2023-02-15T03:01:33;30.30;;;14.07;;
55224;SDS011;41091;49.400;8.684;2023-02-15T03:04:14;27.95;;;14.50;;
55224;SDS011;41091;49.400;8.684;2023-02-15T03:06:46;28.27;;;15.20;;
55224;SDS011;41091;49.400;8.684;2023-02-15T03:09:18;32.88;;;14.38;;
55224;SDS011;41091;49.400;8.684;2023-02-15T03:12:09;25.25;;;13.23;;
55224;SDS011;41091;49.400;8.684;2023-02-15T03:14:39;27.48;;;12.98;;
55224;SDS011;41091;49.400;8.684;2023-02-15T03:17:06;30.95;;;14.48;;
55224;SDS011;41091;49.400;8.684;2023-02-15T03:19:33;30.92;;;15.52;;
55224;SDS011;41091;49.400;8.684;2023-02-15T03:22:08;29.45;;;13.93;;
55224;SDS011;41091;49.400;8.684;2023-02-15T03:24:44;25.52;;;13.18;;
55224;SDS011;41091;49.400;8.684;2023-02-15T03:27:22;30.08;;;14.00;;
55224;SDS011;41091;49.400;8.684;2023-02-15T03:29:51;24.23;;;13.45;;
55224;SDS011;41091;49.400;8.684;2023-02-15T03:32:21;27.08;;;13.13;;
55224;SDS011;41091;49.400;8.684;2023-02-15T03:34:47;28.90;;;14.73;;
55224;SDS011;41091;49.400;8.684;2023-02-15T03:37:30;24.85;;;13.15;;
55224;SDS011;41091;49.400;8.684;2023-02-15T03:40:08;29.65;;;14.77;;
55224;SDS011;41091;49.400;8.684;2023-02-15T03:43:01;20.63;;;12.88;;
55224;SDS011;41091;49.400;8.684;2023-02-15T03:45:49;22.67;;;13.50;;
55224;SDS011;41091;49.400;8.684;2023-02-15T03:48:35;28.42;;;13.65;;
55224;SDS011;41091;49.400;8.684;2023-02-15T03:51:05;30.10;;;13.73;;
55224;SDS011;41091;49.400;8.684;2023-02-15T03:53:51;26.98;;;13.52;;
55224;SDS011;41091;49.400;8.684;2023-02-15T03:56:19;27.33;;;13.50;;
55224;SDS011;41091;49.400;8.684;2023-02-15T03:58:47;27.10;;;12.77;;
55224;SDS011;41091;49.400;8.684;2023-02-15T04:01:34;30.05;;;13.57;;
55224;SDS011;41091;49.400;8.684;2023-02-15T04:04:42;27.13;;;13.45;;
55224;SDS011;41091;49.400;8.684;2023-02-15T04:07:10;25.65;;;13.32;;
55224;SDS011;41091;49.400;8.684;2023-02-15T04:09:40;27.95;;;13.00;;
55224;SDS011;41091;49.400;8.684;2023-02-15T04:12:24;18.65;;;12.13;;
55224;SDS011;41091;49.400;8.684;2023-02-15T04:14:52;24.10;;;13.30;;
55224;SDS011;41091;49.400;8.684;2023-02-15T04:17:38;24.02;;;14.32;;
55224;SDS011;41091;49.400;8.684;2023-02-15T04:20:06;27.80;;;13.77;;
55224;SDS011;41091;49.400;8.684;2023-02-15T04:22:51;25.15;;;11.95;;
55224;SDS011;41091;49.400;8.684;2023-02-15T04:25:37;28.73;;;14.38;;
55224;SDS011;41091;49.400;8.684;2023-02-15T04:28:03;23.55;;;13.65;;
55224;SDS011;41091;49.400;8.684;2023-02-15T04:30:28;22.92;;;13.35;;
55224;SDS011;41091;49.400;8.684;2023-02-15T04:32:54;24.98;;;12.90;;
55224;SDS011;41091;49.400;8.684;2023-02-15T04:35:21;18.95;;;11.52;;
55224;SDS011;41091;49.400;8.684;2023-02-15T04:37:49;24.92;;;13.07;;
55224;SDS011;41091;49.400;8.684;2023-02-15T04:40:15;23.30;;;11.93;;
55224;SDS011;41091;49.400;8.684;2023-02-15T04:42:44;25.83;;;12.80;;
55224;SDS011;41091;49.400;8.684;2023-02-15T04:47:37;24.27;;;13.63;;
55224;SDS011;41091;49.400;8.684;2023-02-15T04:50:03;28.25;;;13.88;;
55224;SDS011;41091;49.400;8.684;2023-02-15T04:52:28;23.70;;;12.38;;
55224;SDS011;41091;49.400;8.684;2023-02-15T04:54:54;26.00;;;13.15;;
55224;SDS011;41091;49.400;8.684;2023-02-15T04:57:19;22.65;;;12.40;;
55224;SDS011;41091;49.400;8.684;2023-02-15T04:59:44;26.77;;;12.93;;
55224;SDS011;41091;49.400;8.684;2023-02-15T05:02:12;27.30;;;13.52;;
55224;SDS011;41091;49.400;8.684;2023-02-15T05:04:39;21.85;;;12.57;;
55224;SDS011;41091;49.400;8.684;2023-02-15T05:07:10;23.05;;;12.02;;
55224;SDS011;41091;49.400;8.684;2023-02-15T05:09:39;18.43;;;11.80;;
55224;SDS011;41091;49.400;8.684;2023-02-15T05:12:05;22.42;;;13.10;;
55224;SDS011;41091;49.400;8.684;2023-02-15T05:14:30;23.27;;;12.13;;
55224;SDS011;41091;49.400;8.684;2023-02-15T05:17:02;26.58;;;13.77;;
55224;SDS011;41091;49.400;8.684;2023-02-15T05:19:30;22.27;;;13.07;;
55224;SDS011;41091;49.400;8.684;2023-02-15T05:22:00;27.52;;;13.77;;
55224;SDS011;41091;49.400;8.684;2023-02-15T05:24:25;21.13;;;12.13;;
55224;SDS011;41091;49.400;8.684;2023-02-15T05:27:10;22.33;;;12.88;;
55224;SDS011;41091;49.400;8.684;2023-02-15T05:29:54;25.58;;;13.15;;
55224;SDS011;41091;49.400;8.684;2023-02-15T05:32:20;29.38;;;12.75;;
55224;SDS011;41091;49.400;8.684;2023-02-15T05:34:47;23.35;;;13.95;;
55224;SDS011;41091;49.400;8.684;2023-02-15T05:37:15;23.80;;;12.38;;
55224;SDS011;41091;49.400;8.684;2023-02-15T05:39:40;23.05;;;12.57;;
55224;SDS011;41091;49.400;8.684;2023-02-15T05:42:08;27.13;;;13.70;;
55224;SDS011;41091;49.400;8.684;2023-02-15T05:44:36;26.73;;;14.13;;
55224;SDS011;41091;49.400;8.684;2023-02-15T05:47:02;31.02;;;13.13;;
55224;SDS011;41091;49.400;8.684;2023-02-15T05:49:28;27.05;;;12.93;;
55224;SDS011;41091;49.400;8.684;2023-02-15T05:51:53;23.23;;;13.00;;
55224;SDS011;41091;49.400;8.684;2023-02-15T05:54:21;25.30;;;14.25;;
55224;SDS011;41091;49.400;8.684;2023-02-15T05:56:49;20.77;;;12.10;;
55224;SDS011;41091;49.400;8.684;2023-02-15T05:59:14;27.02;;;13.52;;
55224;SDS011;41091;49.400;8.684;2023-02-15T06:01:39;28.02;;;15.27;;
55224;SDS011;41091;49.400;8.684;2023-02-15T06:04:07;26.75;;;12.88;;
55224;SDS011;41091;49.400;8.684;2023-02-15T06:06:32;21.63;;;12.73;;
55224;SDS011;41091;49.400;8.684;2023-02-15T06:09:03;26.33;;;13.40;;
55224;SDS011;41091;49.400;8.684;2023-02-15T06:11:30;19.98;;;12.07;;
55224;SDS011;41091;49.400;8.684;2023-02-15T06:13:58;26.05;;;13.82;;
55224;SDS011;41091;49.400;8.684;2023-02-15T06:16:25;26.95;;;12.65;;
55224;SDS011;41091;49.400;8.684;2023-02-15T06:18:51;24.25;;;13.02;;
55224;SDS011;41091;49.400;8.684;2023-02-15T06:21:16;23.98;;;12.50;;
55224;SDS011;41091;49.400;8.684;2023-02-15T06:23:41;25.80;;;15.02;;
55224;SDS011;41091;49.400;8.684;2023-02-15T06:26:08;27.02;;;14.15;;
55224;SDS011;41091;49.400;8.684;2023-02-15T06:28:35;29.60;;;14.65;;
55224;SDS011;41091;49.400;8.684;2023-02-15T06:31:02;26.98;;;13.95;;
55224;SDS011;41091;49.400;8.684;2023-02-15T06:33:27;26.00;;;14.07;;
55224;SDS011;41091;49.400;8.684;2023-02-15T06:35:53;25.98;;;14.07;;
55224;SDS011;41091;49.400;8.684;2023-02-15T06:38:18;28.88;;;15.02;;
55224;SDS011;41091;49.400;8.684;2023-02-15T06:40:43;26.95;;;14.13;;
55224;SDS011;41091;49.400;8.684;2023-02-15T06:43:09;28.10;;;13.93;;
55224;SDS011;41091;49.400;8.684;2023-02-15T06:45:36;31.70;;;15.07;;
55224;SDS011;41091;49.400;8.684;2023-02-15T06:48:01;34.75;;;14.82;;
55224;SDS011;41091;49.400;8.684;2023-02-15T06:50:27;27.58;;;15.60;;
55224;SDS011;41091;49.400;8.684;2023-02-15T06:52:56;28.25;;;13.77;;
55224;SDS011;41091;49.400;8.684;2023-02-15T06:55:22;26.30;;;13.43;;
55224;SDS011;41091;49.400;8.684;2023-02-15T06:57:47;28.40;;;14.07;;
55224;SDS011;41091;49.400;8.684;2023-02-15T07:00:15;24.48;;;14.15;;
55224;SDS011;41091;49.400;8.684;2023-02-15T07:02:40;27.38;;;14.05;;
55224;SDS011;41091;49.400;8.684;2023-02-15T07:05:06;28.25;;;15.23;;
55224;SDS011;41091;49.400;8.684;2023-02-15T07:07:31;26.02;;;14.57;;
55224;SDS011;41091;49.400;8.684;2023-02-15T07:09:56;32.40;;;16.13;;
55224;SDS011;41091;49.400;8.684;2023-02-15T07:12:24;32.95;;;14.10;;
55224;SDS011;41091;49.400;8.684;2023-02-15T07:15:14;30.42;;;15.23;;
55224;SDS011;41091;49.400;8.684;2023-02-15T07:17:41;28.52;;;15.30;;
55224;SDS011;41091;49.400;8.684;2023-02-15T07:20:08;35.85;;;14.65;;
55224;SDS011;41091;49.400;8.684;2023-02-15T07:22:36;28.77;;;13.87;;
55224;SDS011;41091;49.400;8.684;2023-02-15T07:25:04;27.30;;;14.15;;
55224;SDS011;41091;49.400;8.684;2023-02-15T07:27:31;27.75;;;14.73;;
55224;SDS011;41091;49.400;8.684;2023-02-15T07:29:57;31.20;;;17.27;;
55224;SDS011;41091;49.400;8.684;2023-02-15T07:32:26;28.85;;;14.68;;
55224;SDS011;41091;49.400;8.684;2023-02-15T07:34:53;29.08;;;15.38;;
55224;SDS011;41091;49.400;8.684;2023-02-15T07:37:21;30.05;;;15.15;;
55224;SDS011;41091;49.400;8.684;2023-02-15T07:39:46;28.98;;;14.35;;
55224;SDS011;41091;49.400;8.684;2023-02-15T07:42:14;25.35;;;12.23;;
55224;SDS011;41091;49.400;8.684;2023-02-15T07:44:39;26.05;;;14.27;;
55224;SDS011;41091;49.400;8.684;2023-02-15T07:47:05;23.95;;;14.25;;
55224;SDS011;41091;49.400;8.684;2023-02-15T07:49:30;23.67;;;12.90;;
55224;SDS011;41091;49.400;8.684;2023-02-15T07:52:00;20.48;;;12.20;;
55224;SDS011;41091;49.400;8.684;2023-02-15T07:54:28;25.60;;;11.73;;
55224;SDS011;41091;49.400;8.684;2023-02-15T07:56:54;23.27;;;14.25;;
55224;SDS011;41091;49.400;8.684;2023-02-15T07:59:21;19.73;;;11.95;;
55224;SDS011;41091;49.400;8.684;2023-02-15T08:01:49;23.17;;;12.57;;
55224;SDS011;41091;49.400;8.684;2023-02-15T08:04:14;28.90;;;14.85;;
55224;SDS011;41091;49.400;8.684;2023-02-15T08:06:40;21.77;;;12.80;;
55224;SDS011;41091;49.400;8.684;2023-02-15T08:09:08;24.02;;;13.60;;
55224;SDS011;41091;49.400;8.684;2023-02-15T08:11:35;27.70;;;14.82;;
55224;SDS011;41091;49.400;8.684;2023-02-15T08:16:49;29.00;;;14.43;;
55224;SDS011;41091;49.400;8.684;2023-02-15T08:21:42;30.35;;;14.73;;
55224;SDS011;41091;49.400;8.684;2023-02-15T08:24:14;29.38;;;14.20;;
55224;SDS011;41091;49.400;8.684;2023-02-15T08:26:43;24.38;;;13.75;;
55224;SDS011;41091;49.400;8.684;2023-02-15T08:29:13;27.20;;;12.73;;
55224;SDS011;41091;49.400;8.684;2023-02-15T08:31:38;19.90;;;13.05;;
55224;SDS011;41091;49.400;8.684;2023-02-15T08:34:09;23.55;;;13.73;;
55224;SDS011;41091;49.400;8.684;2023-02-15T08:36:36;23.05;;;13.35;;
55224;SDS011;41091;49.400;8.684;2023-02-15T08:39:02;22.92;;;13.73;;
55224;SDS011;41091;49.400;8.684;2023-02-15T08:41:32;23.13;;;13.57;;
55224;SDS011;41091;49.400;8.684;2023-02-15T08:44:03;25.23;;;14.05;;
55224;SDS011;41091;49.400;8.684;2023-02-15T08:46:30;22.45;;;13.75;;
55224;SDS011;41091;49.400;8.684;2023-02-15T08:48:57;23.67;;;13.45;;
55224;SDS011;41091;49.400;8.684;2023-02-15T08:51:25;20.80;;;12.88;;
55224;SDS011;41091;49.400;8.684;2023-02-15T08:53:53;24.85;;;13.68;;
55224;SDS011;41091;49.400;8.684;2023-02-15T08:56:21;18.95;;;12.10;;
55224;SDS011;41091;49.400;8.684;2023-02-15T08:58:50;20.17;;;12.35;;
55224;SDS011;41091;49.400;8.684;2023-02-15T09:01:19;23.08;;;13.13;;
55224;SDS011;41091;49.400;8.684;2023-02-15T09:03:49;22.52;;;13.57;;
55224;SDS011;41091;49.400;8.684;2023-02-15T09:06:17;24.92;;;13.98;;
55224;SDS011;41091;49.400;8.684;2023-02-15T09:08:43;22.55;;;13.00;;
55224;SDS011;41091;49.400;8.684;2023-02-15T09:11:13;24.20;;;13.68;;
55224;SDS011;41091;49.400;8.684;2023-02-15T09:13:52;21.10;;;12.77;;
55224;SDS011;41091;49.400;8.684;2023-02-15T09:16:20;24.80;;;13.68;;
55224;SDS011;41091;49.400;8.684;2023-02-15T09:18:46;24.48;;;14.18;;
55224;SDS011;41091;49.400;8.684;2023-02-15T09:21:13;22.23;;;13.98;;
55224;SDS011;41091;49.400;8.684;2023-02-15T09:23:41;23.15;;;13.10;;
55224;SDS011;41091;49.400;8.684;2023-02-15T09:26:08;28.00;;;15.02;;
55224;SDS011;41091;49.400;8.684;2023-02-15T09:28:35;22.75;;;13.80;;
55224;SDS011;41091;49.400;8.684;2023-02-15T09:33:35;30.58;;;16.38;;
55224;SDS011;41091;49.400;8.684;2023-02-15T09:36:01;21.00;;;12.63;;
55224;SDS011;41091;49.400;8.684;2023-02-15T09:38:29;24.17;;;13.52;;
55224;SDS011;41091;49.400;8.684;2023-02-15T09:41:04;25.05;;;14.00;;
55224;SDS011;41091;49.400;8.684;2023-02-15T09:46:23;24.23;;;13.60;;
55224;SDS011;41091;49.400;8.684;2023-02-15T09:49:00;31.85;;;14.02;;
55224;SDS011;41091;49.400;8.684;2023-02-15T09:51:49;21.92;;;13.75;;
55224;SDS011;41091;49.400;8.684;2023-02-15T09:54:51;23.13;;;14.15;;
55224;SDS011;41091;49.400;8.684;2023-02-15T10:27:47;23.52;;;12.60;;
55224;SDS011;41091;49.400;8.684;2023-02-15T10:30:25;30.40;;;15.10;;
55224;SDS011;41091;49.400;8.684;2023-02-15T10:33:13;25.02;;;14.88;;
55224;SDS011;41091;49.400;8.684;2023-02-15T10:44:01;28.63;;;14.85;;
55224;SDS011;41091;49.400;8.684;2023-02-15T10:55:15;31.40;;;16.25;;
55224;SDS011;41091;49.400;8.684;2023-02-15T11:00:23;28.27;;;14.68;;
55224;SDS011;41091;49.400;8.684;2023-02-15T11:08:14;25.40;;;15.70;;
55224;SDS011;41091;49.400;8.684;2023-02-15T11:11:14;34.53;;;16.67;;
55224;SDS011;41091;49.400;8.684;2023-02-15T11:13:40;30.20;;;17.50;;
55224;SDS011;41091;49.400;8.684;2023-02-15T11:18:49;36.25;;;17.02;;
55224;SDS011;41091;49.400;8.684;2023-02-15T11:21:30;31.90;;;16.52;;
55224;SDS011;41091;49.400;8.684;2023-02-15T11:23:57;33.40;;;17.45;;
55224;SDS011;41091;49.400;8.684;2023-02-15T11:29:05;29.92;;;17.15;;
55224;SDS011;41091;49.400;8.684;2023-02-15T11:31:46;33.03;;;18.30;;
55224;SDS011;41091;49.400;8.684;2023-02-15T11:34:27;31.27;;;17.70;;
55224;SDS011;41091;49.400;8.684;2023-02-15T11:36:58;32.05;;;17.45;;
55224;SDS011;41091;49.400;8.684;2023-02-15T11:39:26;32.15;;;17.92;;
55224;SDS011;41091;49.400;8.684;2023-02-15T11:41:55;36.88;;;18.48;;
55224;SDS011;41091;49.400;8.684;2023-02-15T11:46:57;31.33;;;18.25;;
55224;SDS011;41091;49.400;8.684;2023-02-15T11:51:55;35.20;;;19.33;;
55224;SDS011;41091;49.400;8.684;2023-02-15T11:54:21;34.47;;;16.60;;
55224;SDS011;41091;49.400;8.684;2023-02-15T11:56:51;30.80;;;17.13;;
55224;SDS011;41091;49.400;8.684;2023-02-15T11:59:33;36.97;;;18.73;;
55224;SDS011;41091;49.400;8.684;2023-02-15T12:01:59;29.42;;;17.10;;
55224;SDS011;41091;49.400;8.684;2023-02-15T12:04:32;31.85;;;18.52;;
55224;SDS011;41091;49.400;8.684;2023-02-15T12:07:14;29.40;;;17.38;;
55224;SDS011;41091;49.400;8.684;2023-02-15T12:12:25;34.47;;;18.77;;
55224;SDS011;41091;49.400;8.684;2023-02-15T12:14:55;26.30;;;16.52;;
55224;SDS011;41091;49.400;8.684;2023-02-15T12:17:26;31.58;;;18.10;;
55224;SDS011;41091;49.400;8.684;2023-02-15T12:19:54;29.73;;;19.25;;
55224;SDS011;41091;49.400;8.684;2023-02-15T12:22:26;27.48;;;17.13;;
55224;SDS011;41091;49.400;8.684;2023-02-15T12:24:55;30.33;;;18.10;;
55224;SDS011;41091;49.400;8.684;2023-02-15T12:27:26;29.98;;;17.90;;
55224;SDS011;41091;49.400;8.684;2023-02-15T12:30:05;34.55;;;18.17;;
55224;SDS011;41091;49.400;8.684;2023-02-15T12:32:36;30.58;;;17.98;;
55224;SDS011;41091;49.400;8.684;2023-02-15T12:35:13;31.30;;;18.30;;
55224;SDS011;41091;49.400;8.684;2023-02-15T12:40:29;30.38;;;17.17;;
55224;SDS011;41091;49.400;8.684;2023-02-15T12:42:56;26.08;;;16.65;;
55224;SDS011;41091;49.400;8.684;2023-02-15T12:45:32;38.05;;;17.95;;
55224;SDS011;41091;49.400;8.684;2023-02-15T12:50:34;28.45;;;17.48;;
55224;SDS011;41091;49.400;8.684;2023-02-15T12:55:58;31.77;;;18.15;;
55224;SDS011;41091;49.400;8.684;2023-02-15T12:58:25;29.42;;;17.27;;
55224;SDS011;41091;49.400;8.684;2023-02-15T13:03:55;39.78;;;20.48;;
55224;SDS011;41091;49.400;8.684;2023-02-15T13:06:24;32.10;;;17.80;;
55224;SDS011;41091;49.400;8.684;2023-02-15T13:08:52;31.63;;;19.63;;
55224;SDS011;41091;49.400;8.684;2023-02-15T13:11:20;28.80;;;19.65;;
55224;SDS011;41091;49.400;8.684;2023-02-15T13:14:02;32.22;;;19.85;;
55224;SDS011;41091;49.400;8.684;2023-02-15T13:16:32;75.80;;;40.17;;
55224;SDS011;41091;49.400;8.684;2023-02-15T13:19:03;48.47;;;25.50;;
55224;SDS011;41091;49.400;8.684;2023-02-15T13:21:35;36.55;;;20.00;;
55224;SDS011;41091;49.400;8.684;2023-02-15T13:26:31;32.30;;;19.98;;
55224;SDS011;41091;49.400;8.684;2023-02-15T13:29:08;31.20;;;19.73;;
55224;SDS011;41091;49.400;8.684;2023-02-15T13:31:45;31.15;;;20.35;;
55224;SDS011;41091;49.400;8.684;2023-02-15T13:34:12;33.88;;;19.60;;
55224;SDS011;41091;49.400;8.684;2023-02-15T13:36:48;38.85;;;19.50;;
55224;SDS011;41091;49.400;8.684;2023-02-15T14:01:55;33.08;;;19.92;;
55224;SDS011;41091;49.400;8.684;2023-02-15T14:23:06;35.85;;;19.45;;
55224;SDS011;41091;49.400;8.684;2023-02-15T14:25:45;28.45;;;18.88;;
55224;SDS011;41091;49.400;8.684;2023-02-15T14:28:16;30.90;;;20.75;;
55224;SDS011;41091;49.400;8.684;2023-02-15T14:30:48;34.33;;;19.77;;
55224;SDS011;41091;49.400;8.684;2023-02-15T14:35:55;38.85;;;19.25;;
55224;SDS011;41091;49.400;8.684;2023-02-15T14:46:46;33.28;;;18.70;;
55224;SDS011;41091;49.400;8.684;2023-02-15T14:49:25;31.83;;;19.25;;
55224;SDS011;41091;49.400;8.684;2023-02-15T14:51:56;29.65;;;19.00;;
55224;SDS011;41091;49.400;8.684;2023-02-15T14:59:25;33.70;;;19.70;;
55224;SDS011;41091;49.400;8.684;2023-02-15T15:01:58;29.50;;;17.52;;
55224;SDS011;41091;49.400;8.684;2023-02-15T15:07:22;32.78;;;18.75;;
55224;SDS011;41091;49.400;8.684;2023-02-15T15:14:53;33.10;;;19.80;;
55224;SDS011;41091;49.400;8.684;2023-02-15T15:22:50;29.63;;;18.75;;
55224;SDS011;41091;49.400;8.684;2023-02-15T15:28:52;36.42;;;20.73;;
55224;SDS011;41091;49.400;8.684;2023-02-15T15:50:53;31.38;;;20.02;;
55224;SDS011;41091;49.400;8.684;2023-02-15T15:53:22;40.17;;;19.50;;
55224;SDS011;41091;49.400;8.684;2023-02-15T15:55:50;29.65;;;18.17;;
55224;SDS011;41091;49.400;8.684;2023-02-15T15:58:19;29.93;;;18.30;;
55224;SDS011;41091;49.400;8.684;2023-02-15T16:00:48;25.73;;;17.35;;
55224;SDS011;41091;49.400;8.684;2023-02-15T16:05:41;29.42;;;19.20;;
55224;SDS011;41091;49.400;8.684;2023-02-15T16:08:07;30.13;;;17.35;;
55224;SDS011;41091;49.400;8.684;2023-02-15T16:10:32;30.98;;;18.85;;
55224;SDS011;41091;49.400;8.684;2023-02-15T16:13:02;33.53;;;19.95;;
55224;SDS011;41091;49.400;8.684;2023-02-15T16:15:33;40.03;;;21.90;;
55224;SDS011;41091;49.400;8.684;2023-02-15T16:18:03;34.42;;;21.05;;
55224;SDS011;41091;49.400;8.684;2023-02-15T16:26:16;33.78;;;20.35;;
55224;SDS011;41091;49.400;8.684;2023-02-15T16:28:47;41.65;;;21.60;;
55224;SDS011;41091;49.400;8.684;2023-02-15T16:33:42;36.85;;;22.60;;
55224;SDS011;41091;49.400;8.684;2023-02-15T16:36:30;36.65;;;22.77;;
55224;SDS011;41091;49.400;8.684;2023-02-15T16:43:49;35.80;;;21.38;;
55224;SDS011;41091;49.400;8.684;2023-02-15T16:48:46;34.47;;;21.15;;
55224;SDS011;41091;49.400;8.684;2023-02-15T16:51:23;36.30;;;22.08;;
55224;SDS011;41091;49.400;8.684;2023-02-15T16:53:53;33.15;;;20.00;;
55224;SDS011;41091;49.400;8.684;2023-02-15T16:56:25;31.55;;;20.08;;
55224;SDS011;41091;49.400;8.684;2023-02-15T16:58:54;44.08;;;20.90;;
55224;SDS011;41091;49.400;8.684;2023-02-15T17:01:26;39.67;;;21.65;;
55224;SDS011;41091;49.400;8.684;2023-02-15T17:04:25;35.85;;;22.30;;
55224;SDS011;41091;49.400;8.684;2023-02-15T17:06:57;37.72;;;22.20;;
55224;SDS011;41091;49.400;8.684;2023-02-15T17:09:29;34.13;;;20.15;;
55224;SDS011;41091;49.400;8.684;2023-02-15T17:11:54;38.55;;;21.58;;
55224;SDS011;41091;49.400;8.684;2023-02-15T17:14:21;35.33;;;22.85;;
55224;SDS011;41091;49.400;8.684;2023-02-15T17:16:54;43.97;;;23.23;;
55224;SDS011;41091;49.400;8.684;2023-02-15T17:21:57;31.65;;;20.65;;
55224;SDS011;41091;49.400;8.684;2023-02-15T17:24:39;33.78;;;20.02;;
55224;SDS011;41091;49.400;8.684;2023-02-15T17:27:15;34.75;;;20.92;;
55224;SDS011;41091;49.400;8.684;2023-02-15T17:29:56;42.53;;;22.67;;
55224;SDS011;41091;49.400;8.684;2023-02-15T17:32:24;35.13;;;20.50;;
55224;SDS011;41091;49.400;8.684;2023-02-15T17:37:30;32.30;;;19.63;;
55224;SDS011;41091;49.400;8.684;2023-02-15T17:39:56;39.92;;;21.63;;
55224;SDS011;41091;49.400;8.684;2023-02-15T17:42:22;36.55;;;21.17;;
55224;SDS011;41091;49.400;8.684;2023-02-15T17:44:48;45.65;;;21.58;;
55224;SDS011;41091;49.400;8.684;2023-02-15T17:47:18;35.47;;;20.50;;
55224;SDS011;41091;49.400;8.684;2023-02-15T17:49:45;32.78;;;20.17;;
55224;SDS011;41091;49.400;8.684;2023-02-15T17:52:11;39.45;;;20.77;;
55224;SDS011;41091;49.400;8.684;2023-02-15T17:54:42;31.90;;;19.15;;
55224;SDS011;41091;49.400;8.684;2023-02-15T17:57:27;40.50;;;21.20;;
55224;SDS011;41091;49.400;8.684;2023-02-15T17:59:53;38.13;;;20.58;;
55224;SDS011;41091;49.400;8.684;2023-02-15T18:02:37;35.92;;;21.08;;
55224;SDS011;41091;49.400;8.684;2023-02-15T18:05:21;35.22;;;20.75;;
55224;SDS011;41091;49.400;8.684;2023-02-15T18:08:09;38.38;;;22.42;;
55224;SDS011;41091;49.400;8.684;2023-02-15T18:10:54;48.03;;;24.92;;
55224;SDS011;41091;49.400;8.684;2023-02-15T18:13:41;51.60;;;26.27;;
55224;SDS011;41091;49.400;8.684;2023-02-15T18:16:10;53.25;;;32.72;;
55224;SDS011;41091;49.400;8.684;2023-02-15T18:18:40;49.03;;;28.10;;
55224;SDS011;41091;49.400;8.684;2023-02-15T18:21:09;50.67;;;28.35;;
55224;SDS011;41091;49.400;8.684;2023-02-15T18:23:36;52.47;;;30.40;;
55224;SDS011;41091;49.400;8.684;2023-02-15T18:26:03;51.30;;;31.38;;
55224;SDS011;41091;49.400;8.684;2023-02-15T18:28:29;54.45;;;30.10;;
55224;SDS011;41091;49.400;8.684;2023-02-15T18:30:55;39.85;;;23.83;;
55224;SDS011;41091;49.400;8.684;2023-02-15T18:33:35;49.78;;;24.30;;
55224;SDS011;41091;49.400;8.684;2023-02-15T18:36:20;40.38;;;22.15;;